SVD weather

CLOSED E. T. Joshua Airport
Kingstown, Saint George, Saint Vincent and the Grenadines

Public forecast

Using degrees Celsius for public forecast. Weather courtesy of forecast.io.

METAR (pilot weather report)

Report is more than 6 hours old.

Retrieved 2019/01/12 16:00 UTC (7 months ago):

TVSV 121600Z 08005KT 040V120 9999 SCT020 28/20 Q1017 NOSIG

TAF (pilot weather forecast)

Forecast is more than 12 hours old.

Retrieved 2017/06/02 12:21 UTC (2 years ago):

TAF TVSV 021100Z 0212/0312 09012KT 9999 SCT020 TEMPO 0220/0306 4000 TSRA/RA SCT012CB BKN014